sensor_id;sensor_type;location;lat;lon;timestamp;P1;durP1;ratioP1;P2;durP2;ratioP2
5847;SDS011;8756;49.29324300;8.70599800;2023-04-15T00:00:41;10.20;;;3.03;;
5847;SDS011;8756;49.29324300;8.70599800;2023-04-15T00:03:07;9.93;;;3.63;;
5847;SDS011;8756;49.29324300;8.70599800;2023-04-15T00:05:33;9.57;;;3.33;;
5847;SDS011;8756;49.29324300;8.70599800;2023-04-15T00:07:59;9.50;;;3.80;;
5847;SDS011;8756;49.29324300;8.70599800;2023-04-15T00:10:25;9.10;;;3.20;;
5847;SDS011;8756;49.29324300;8.70599800;2023-04-15T00:12:52;9.63;;;4.03;;
5847;SDS011;8756;49.29324300;8.70599800;2023-04-15T00:15:18;10.53;;;4.40;;
5847;SDS011;8756;49.29324300;8.70599800;2023-04-15T00:17:44;10.53;;;4.30;;
5847;SDS011;8756;49.29324300;8.70599800;2023-04-15T00:20:10;9.87;;;4.03;;
5847;SDS011;8756;49.29324300;8.70599800;2023-04-15T00:22:36;10.90;;;4.50;;
5847;SDS011;8756;49.29324300;8.70599800;2023-04-15T00:25:02;9.47;;;3.30;;
5847;SDS011;8756;49.29324300;8.70599800;2023-04-15T00:27:27;9.60;;;3.40;;
5847;SDS011;8756;49.29324300;8.70599800;2023-04-15T00:29:54;12.40;;;4.50;;
5847;SDS011;8756;49.29324300;8.70599800;2023-04-15T00:32:20;9.90;;;4.20;;
5847;SDS011;8756;49.29324300;8.70599800;2023-04-15T00:34:46;9.80;;;4.33;;
5847;SDS011;8756;49.29324300;8.70599800;2023-04-15T00:37:11;10.70;;;4.27;;
5847;SDS011;8756;49.29324300;8.70599800;2023-04-15T00:39:37;9.70;;;4.07;;
5847;SDS011;8756;49.29324300;8.70599800;2023-04-15T00:42:03;9.40;;;3.93;;
5847;SDS011;8756;49.29324300;8.70599800;2023-04-15T00:44:29;10.90;;;3.57;;
5847;SDS011;8756;49.29324300;8.70599800;2023-04-15T00:46:56;9.47;;;3.90;;
5847;SDS011;8756;49.29324300;8.70599800;2023-04-15T00:49:22;10.03;;;3.90;;
5847;SDS011;8756;49.29324300;8.70599800;2023-04-15T00:51:48;10.07;;;3.67;;
5847;SDS011;8756;49.29324300;8.70599800;2023-04-15T00:54:14;9.20;;;2.93;;
5847;SDS011;8756;49.29324300;8.70599800;2023-04-15T00:56:40;9.77;;;4.43;;
5847;SDS011;8756;49.29324300;8.70599800;2023-04-15T00:59:06;10.43;;;4.23;;
5847;SDS011;8756;49.29324300;8.70599800;2023-04-15T01:01:36;9.20;;;3.70;;
5847;SDS011;8756;49.29324300;8.70599800;2023-04-15T01:04:02;11.50;;;3.73;;
5847;SDS011;8756;49.29324300;8.70599800;2023-04-15T01:06:29;10.00;;;4.43;;
5847;SDS011;8756;49.29324300;8.70599800;2023-04-15T01:08:56;9.80;;;3.97;;
5847;SDS011;8756;49.29324300;8.70599800;2023-04-15T01:11:23;9.60;;;3.60;;
5847;SDS011;8756;49.29324300;8.70599800;2023-04-15T01:13:49;10.00;;;3.40;;
5847;SDS011;8756;49.29324300;8.70599800;2023-04-15T01:16:16;9.13;;;3.70;;
5847;SDS011;8756;49.29324300;8.70599800;2023-04-15T01:18:43;9.70;;;4.43;;
5847;SDS011;8756;49.29324300;8.70599800;2023-04-15T01:21:09;9.90;;;4.40;;
5847;SDS011;8756;49.29324300;8.70599800;2023-04-15T01:23:36;10.60;;;4.50;;
5847;SDS011;8756;49.29324300;8.70599800;2023-04-15T01:26:03;9.83;;;4.00;;
5847;SDS011;8756;49.29324300;8.70599800;2023-04-15T01:28:30;10.30;;;4.67;;
5847;SDS011;8756;49.29324300;8.70599800;2023-04-15T01:31:12;9.90;;;4.50;;
5847;SDS011;8756;49.29324300;8.70599800;2023-04-15T01:33:39;9.90;;;4.00;;
5847;SDS011;8756;49.29324300;8.70599800;2023-04-15T01:36:07;9.80;;;4.57;;
5847;SDS011;8756;49.29324300;8.70599800;2023-04-15T01:38:34;10.20;;;3.63;;
5847;SDS011;8756;49.29324300;8.70599800;2023-04-15T01:41:00;10.40;;;5.00;;
5847;SDS011;8756;49.29324300;8.70599800;2023-04-15T01:43:28;10.20;;;4.70;;
5847;SDS011;8756;49.29324300;8.70599800;2023-04-15T01:45:54;9.60;;;4.40;;
5847;SDS011;8756;49.29324300;8.70599800;2023-04-15T01:48:20;9.60;;;3.97;;
5847;SDS011;8756;49.29324300;8.70599800;2023-04-15T01:50:49;10.77;;;4.10;;
5847;SDS011;8756;49.29324300;8.70599800;2023-04-15T01:53:15;9.73;;;4.23;;
5847;SDS011;8756;49.29324300;8.70599800;2023-04-15T01:55:41;11.33;;;3.47;;
5847;SDS011;8756;49.29324300;8.70599800;2023-04-15T01:58:07;10.40;;;4.10;;
5847;SDS011;8756;49.29324300;8.70599800;2023-04-15T02:00:32;9.60;;;3.77;;
5847;SDS011;8756;49.29324300;8.70599800;2023-04-15T02:02:58;9.60;;;3.83;;
5847;SDS011;8756;49.29324300;8.70599800;2023-04-15T02:05:24;9.63;;;3.90;;
5847;SDS011;8756;49.29324300;8.70599800;2023-04-15T02:07:50;10.33;;;4.23;;
5847;SDS011;8756;49.29324300;8.70599800;2023-04-15T02:10:16;10.73;;;3.90;;
5847;SDS011;8756;49.29324300;8.70599800;2023-04-15T02:12:41;10.20;;;4.60;;
5847;SDS011;8756;49.29324300;8.70599800;2023-04-15T02:15:07;9.80;;;4.40;;
5847;SDS011;8756;49.29324300;8.70599800;2023-04-15T02:17:34;9.60;;;4.23;;
5847;SDS011;8756;49.29324300;8.70599800;2023-04-15T02:20:01;12.50;;;4.17;;
5847;SDS011;8756;49.29324300;8.70599800;2023-04-15T02:22:30;10.83;;;5.10;;
5847;SDS011;8756;49.29324300;8.70599800;2023-04-15T02:24:55;11.63;;;4.33;;
5847;SDS011;8756;49.29324300;8.70599800;2023-04-15T02:27:21;10.27;;;4.43;;
5847;SDS011;8756;49.29324300;8.70599800;2023-04-15T02:29:47;9.60;;;3.97;;
5847;SDS011;8756;49.29324300;8.70599800;2023-04-15T02:32:15;10.73;;;4.67;;
5847;SDS011;8756;49.29324300;8.70599800;2023-04-15T02:34:41;10.00;;;3.67;;
5847;SDS011;8756;49.29324300;8.70599800;2023-04-15T02:37:10;9.63;;;4.27;;
5847;SDS011;8756;49.29324300;8.70599800;2023-04-15T02:39:37;11.37;;;4.60;;
5847;SDS011;8756;49.29324300;8.70599800;2023-04-15T02:42:03;9.30;;;3.87;;
5847;SDS011;8756;49.29324300;8.70599800;2023-04-15T02:44:30;12.23;;;5.13;;
5847;SDS011;8756;49.29324300;8.70599800;2023-04-15T02:46:57;9.90;;;4.87;;
5847;SDS011;8756;49.29324300;8.70599800;2023-04-15T02:49:24;11.43;;;4.60;;
5847;SDS011;8756;49.29324300;8.70599800;2023-04-15T02:51:50;11.20;;;4.63;;
5847;SDS011;8756;49.29324300;8.70599800;2023-04-15T02:54:16;9.50;;;3.70;;
5847;SDS011;8756;49.29324300;8.70599800;2023-04-15T02:56:47;9.27;;;3.77;;
5847;SDS011;8756;49.29324300;8.70599800;2023-04-15T02:59:13;9.83;;;4.27;;
5847;SDS011;8756;49.29324300;8.70599800;2023-04-15T03:01:38;11.20;;;4.60;;
5847;SDS011;8756;49.29324300;8.70599800;2023-04-15T03:04:04;11.27;;;4.47;;
5847;SDS011;8756;49.29324300;8.70599800;2023-04-15T03:06:31;10.53;;;4.20;;
5847;SDS011;8756;49.29324300;8.70599800;2023-04-15T03:08:57;10.47;;;4.57;;
5847;SDS011;8756;49.29324300;8.70599800;2023-04-15T03:11:24;9.40;;;4.20;;
5847;SDS011;8756;49.29324300;8.70599800;2023-04-15T03:13:51;9.37;;;4.07;;
5847;SDS011;8756;49.29324300;8.70599800;2023-04-15T03:16:16;11.00;;;4.30;;
5847;SDS011;8756;49.29324300;8.70599800;2023-04-15T03:18:42;9.70;;;4.27;;
5847;SDS011;8756;49.29324300;8.70599800;2023-04-15T03:21:08;9.33;;;3.67;;
5847;SDS011;8756;49.29324300;8.70599800;2023-04-15T03:23:33;10.50;;;4.87;;
5847;SDS011;8756;49.29324300;8.70599800;2023-04-15T03:26:02;9.50;;;4.37;;
5847;SDS011;8756;49.29324300;8.70599800;2023-04-15T03:28:29;10.97;;;5.13;;
5847;SDS011;8756;49.29324300;8.70599800;2023-04-15T03:30:56;9.17;;;4.00;;
5847;SDS011;8756;49.29324300;8.70599800;2023-04-15T03:33:22;9.73;;;4.03;;
5847;SDS011;8756;49.29324300;8.70599800;2023-04-15T03:35:49;13.83;;;4.33;;
5847;SDS011;8756;49.29324300;8.70599800;2023-04-15T03:38:15;9.97;;;5.07;;
5847;SDS011;8756;49.29324300;8.70599800;2023-04-15T03:40:42;9.67;;;4.37;;
5847;SDS011;8756;49.29324300;8.70599800;2023-04-15T03:43:07;9.63;;;3.90;;
5847;SDS011;8756;49.29324300;8.70599800;2023-04-15T03:45:33;9.73;;;4.27;;
5847;SDS011;8756;49.29324300;8.70599800;2023-04-15T03:47:59;9.57;;;4.47;;
5847;SDS011;8756;49.29324300;8.70599800;2023-04-15T03:50:25;9.77;;;4.27;;
5847;SDS011;8756;49.29324300;8.70599800;2023-04-15T03:52:51;10.90;;;5.40;;
5847;SDS011;8756;49.29324300;8.70599800;2023-04-15T03:55:17;10.50;;;5.17;;
5847;SDS011;8756;49.29324300;8.70599800;2023-04-15T03:57:44;9.60;;;4.77;;
5847;SDS011;8756;49.29324300;8.70599800;2023-04-15T04:00:10;9.53;;;4.57;;
5847;SDS011;8756;49.29324300;8.70599800;2023-04-15T04:02:36;9.60;;;4.43;;
5847;SDS011;8756;49.29324300;8.70599800;2023-04-15T04:05:01;9.63;;;4.33;;
5847;SDS011;8756;49.29324300;8.70599800;2023-04-15T04:07:28;9.60;;;3.87;;
5847;SDS011;8756;49.29324300;8.70599800;2023-04-15T04:09:54;10.40;;;5.10;;
5847;SDS011;8756;49.29324300;8.70599800;2023-04-15T04:12:21;9.47;;;4.10;;
5847;SDS011;8756;49.29324300;8.70599800;2023-04-15T04:14:47;9.83;;;3.93;;
5847;SDS011;8756;49.29324300;8.70599800;2023-04-15T04:17:12;10.10;;;4.73;;
5847;SDS011;8756;49.29324300;8.70599800;2023-04-15T04:19:38;10.60;;;5.23;;
5847;SDS011;8756;49.29324300;8.70599800;2023-04-15T04:22:04;9.43;;;4.70;;
5847;SDS011;8756;49.29324300;8.70599800;2023-04-15T04:24:30;9.93;;;4.57;;
5847;SDS011;8756;49.29324300;8.70599800;2023-04-15T04:26:56;10.10;;;4.30;;
5847;SDS011;8756;49.29324300;8.70599800;2023-04-15T04:29:21;9.90;;;5.00;;
5847;SDS011;8756;49.29324300;8.70599800;2023-04-15T04:31:47;9.43;;;4.80;;
5847;SDS011;8756;49.29324300;8.70599800;2023-04-15T04:34:13;9.53;;;3.67;;
5847;SDS011;8756;49.29324300;8.70599800;2023-04-15T04:36:40;10.43;;;4.50;;
5847;SDS011;8756;49.29324300;8.70599800;2023-04-15T04:39:05;9.23;;;3.80;;
5847;SDS011;8756;49.29324300;8.70599800;2023-04-15T04:41:31;10.07;;;4.77;;
5847;SDS011;8756;49.29324300;8.70599800;2023-04-15T04:43:57;9.97;;;4.67;;
5847;SDS011;8756;49.29324300;8.70599800;2023-04-15T04:46:23;9.30;;;4.10;;
5847;SDS011;8756;49.29324300;8.70599800;2023-04-15T04:48:49;10.30;;;4.80;;
5847;SDS011;8756;49.29324300;8.70599800;2023-04-15T04:51:15;10.10;;;5.00;;
5847;SDS011;8756;49.29324300;8.70599800;2023-04-15T04:53:40;9.60;;;4.40;;
5847;SDS011;8756;49.29324300;8.70599800;2023-04-15T04:56:07;9.00;;;3.00;;
5847;SDS011;8756;49.29324300;8.70599800;2023-04-15T04:58:33;10.27;;;4.60;;
5847;SDS011;8756;49.29324300;8.70599800;2023-04-15T05:00:58;9.53;;;4.23;;
5847;SDS011;8756;49.29324300;8.70599800;2023-04-15T05:03:24;9.40;;;4.73;;
5847;SDS011;8756;49.29324300;8.70599800;2023-04-15T05:05:50;9.77;;;3.77;;
5847;SDS011;8756;49.29324300;8.70599800;2023-04-15T05:08:16;9.50;;;3.80;;
5847;SDS011;8756;49.29324300;8.70599800;2023-04-15T05:10:41;8.90;;;3.47;;
5847;SDS011;8756;49.29324300;8.70599800;2023-04-15T05:13:07;9.47;;;4.30;;
5847;SDS011;8756;49.29324300;8.70599800;2023-04-15T05:15:32;9.87;;;5.07;;
5847;SDS011;8756;49.29324300;8.70599800;2023-04-15T05:18:00;9.70;;;4.30;;
5847;SDS011;8756;49.29324300;8.70599800;2023-04-15T05:20:26;9.50;;;3.60;;
5847;SDS011;8756;49.29324300;8.70599800;2023-04-15T05:22:52;9.80;;;4.40;;
5847;SDS011;8756;49.29324300;8.70599800;2023-04-15T05:25:18;9.37;;;3.80;;
5847;SDS011;8756;49.29324300;8.70599800;2023-04-15T05:27:45;10.60;;;4.47;;
5847;SDS011;8756;49.29324300;8.70599800;2023-04-15T05:30:10;10.30;;;4.50;;
5847;SDS011;8756;49.29324300;8.70599800;2023-04-15T05:32:37;9.90;;;4.47;;
5847;SDS011;8756;49.29324300;8.70599800;2023-04-15T05:35:02;9.80;;;4.50;;
5847;SDS011;8756;49.29324300;8.70599800;2023-04-15T05:37:28;9.30;;;4.03;;
5847;SDS011;8756;49.29324300;8.70599800;2023-04-15T05:39:54;10.40;;;5.10;;
5847;SDS011;8756;49.29324300;8.70599800;2023-04-15T05:42:20;9.40;;;4.53;;
5847;SDS011;8756;49.29324300;8.70599800;2023-04-15T05:44:46;10.93;;;4.90;;
5847;SDS011;8756;49.29324300;8.70599800;2023-04-15T05:47:11;9.70;;;4.47;;
5847;SDS011;8756;49.29324300;8.70599800;2023-04-15T05:49:37;9.17;;;3.93;;
5847;SDS011;8756;49.29324300;8.70599800;2023-04-15T05:52:03;10.63;;;4.20;;
5847;SDS011;8756;49.29324300;8.70599800;2023-04-15T05:54:29;9.50;;;4.10;;
5847;SDS011;8756;49.29324300;8.70599800;2023-04-15T05:56:55;9.50;;;4.57;;
5847;SDS011;8756;49.29324300;8.70599800;2023-04-15T05:59:21;9.10;;;3.40;;
5847;SDS011;8756;49.29324300;8.70599800;2023-04-15T06:01:47;9.10;;;3.30;;
5847;SDS011;8756;49.29324300;8.70599800;2023-04-15T06:04:13;10.10;;;4.90;;
5847;SDS011;8756;49.29324300;8.70599800;2023-04-15T06:06:39;9.53;;;4.60;;
5847;SDS011;8756;49.29324300;8.70599800;2023-04-15T06:09:05;10.10;;;4.70;;
5847;SDS011;8756;49.29324300;8.70599800;2023-04-15T06:11:30;9.30;;;3.63;;
5847;SDS011;8756;49.29324300;8.70599800;2023-04-15T06:13:56;9.67;;;4.30;;
5847;SDS011;8756;49.29324300;8.70599800;2023-04-15T06:16:21;9.90;;;4.60;;
5847;SDS011;8756;49.29324300;8.70599800;2023-04-15T06:18:47;9.60;;;3.97;;
5847;SDS011;8756;49.29324300;8.70599800;2023-04-15T06:21:13;10.00;;;4.40;;
5847;SDS011;8756;49.29324300;8.70599800;2023-04-15T06:23:39;9.53;;;3.70;;
5847;SDS011;8756;49.29324300;8.70599800;2023-04-15T06:26:06;9.83;;;3.80;;
5847;SDS011;8756;49.29324300;8.70599800;2023-04-15T06:28:32;9.37;;;3.93;;
5847;SDS011;8756;49.29324300;8.70599800;2023-04-15T06:30:57;9.40;;;3.47;;
5847;SDS011;8756;49.29324300;8.70599800;2023-04-15T06:33:23;9.87;;;4.67;;
5847;SDS011;8756;49.29324300;8.70599800;2023-04-15T06:35:49;10.00;;;4.50;;
5847;SDS011;8756;49.29324300;8.70599800;2023-04-15T06:38:14;11.10;;;4.40;;
5847;SDS011;8756;49.29324300;8.70599800;2023-04-15T06:40:40;9.40;;;4.40;;
5847;SDS011;8756;49.29324300;8.70599800;2023-04-15T06:43:06;9.50;;;3.80;;
5847;SDS011;8756;49.29324300;8.70599800;2023-04-15T06:45:32;10.00;;;4.70;;
5847;SDS011;8756;49.29324300;8.70599800;2023-04-15T06:47:57;10.83;;;4.30;;
5847;SDS011;8756;49.29324300;8.70599800;2023-04-15T06:50:23;10.53;;;4.40;;
5847;SDS011;8756;49.29324300;8.70599800;2023-04-15T06:52:49;9.90;;;4.73;;
5847;SDS011;8756;49.29324300;8.70599800;2023-04-15T06:55:14;9.40;;;3.53;;
5847;SDS011;8756;49.29324300;8.70599800;2023-04-15T06:57:40;10.73;;;4.10;;
5847;SDS011;8756;49.29324300;8.70599800;2023-04-15T07:00:06;9.37;;;3.73;;
5847;SDS011;8756;49.29324300;8.70599800;2023-04-15T07:02:35;10.30;;;4.80;;
5847;SDS011;8756;49.29324300;8.70599800;2023-04-15T07:05:00;11.07;;;4.97;;
5847;SDS011;8756;49.29324300;8.70599800;2023-04-15T07:07:26;11.33;;;4.13;;
5847;SDS011;8756;49.29324300;8.70599800;2023-04-15T07:09:52;9.80;;;3.80;;
5847;SDS011;8756;49.29324300;8.70599800;2023-04-15T07:12:18;11.07;;;4.97;;
5847;SDS011;8756;49.29324300;8.70599800;2023-04-15T07:14:44;12.43;;;3.73;;
5847;SDS011;8756;49.29324300;8.70599800;2023-04-15T07:17:09;10.50;;;4.63;;
5847;SDS011;8756;49.29324300;8.70599800;2023-04-15T07:19:36;11.00;;;5.17;;
5847;SDS011;8756;49.29324300;8.70599800;2023-04-15T07:22:02;11.77;;;5.10;;
5847;SDS011;8756;49.29324300;8.70599800;2023-04-15T07:24:27;11.67;;;4.43;;
5847;SDS011;8756;49.29324300;8.70599800;2023-04-15T07:26:54;11.00;;;4.80;;
5847;SDS011;8756;49.29324300;8.70599800;2023-04-15T07:29:21;10.40;;;3.47;;
5847;SDS011;8756;49.29324300;8.70599800;2023-04-15T07:31:47;10.00;;;3.97;;
5847;SDS011;8756;49.29324300;8.70599800;2023-04-15T07:34:13;10.60;;;4.77;;
5847;SDS011;8756;49.29324300;8.70599800;2023-04-15T07:36:38;10.60;;;4.30;;
5847;SDS011;8756;49.29324300;8.70599800;2023-04-15T07:39:04;10.30;;;4.77;;
5847;SDS011;8756;49.29324300;8.70599800;2023-04-15T07:41:30;9.73;;;3.60;;
5847;SDS011;8756;49.29324300;8.70599800;2023-04-15T07:43:56;9.80;;;3.90;;
5847;SDS011;8756;49.29324300;8.70599800;2023-04-15T07:46:21;9.70;;;3.90;;
5847;SDS011;8756;49.29324300;8.70599800;2023-04-15T07:48:48;10.30;;;4.30;;
5847;SDS011;8756;49.29324300;8.70599800;2023-04-15T07:51:14;11.27;;;4.37;;
5847;SDS011;8756;49.29324300;8.70599800;2023-04-15T07:53:41;10.47;;;4.70;;
5847;SDS011;8756;49.29324300;8.70599800;2023-04-15T07:56:08;10.20;;;4.43;;
5847;SDS011;8756;49.29324300;8.70599800;2023-04-15T07:58:34;15.13;;;4.60;;
5847;SDS011;8756;49.29324300;8.70599800;2023-04-15T08:01:00;11.07;;;4.13;;
5847;SDS011;8756;49.29324300;8.70599800;2023-04-15T08:03:25;10.00;;;4.30;;
5847;SDS011;8756;49.29324300;8.70599800;2023-04-15T08:05:51;10.50;;;4.00;;
5847;SDS011;8756;49.29324300;8.70599800;2023-04-15T08:08:18;11.00;;;4.40;;
5847;SDS011;8756;49.29324300;8.70599800;2023-04-15T08:10:43;10.40;;;4.40;;
5847;SDS011;8756;49.29324300;8.70599800;2023-04-15T08:13:09;11.40;;;4.80;;
5847;SDS011;8756;49.29324300;8.70599800;2023-04-15T08:15:35;10.37;;;4.30;;
5847;SDS011;8756;49.29324300;8.70599800;2023-04-15T08:18:01;10.20;;;4.27;;
5847;SDS011;8756;49.29324300;8.70599800;2023-04-15T08:20:27;10.20;;;4.50;;
5847;SDS011;8756;49.29324300;8.70599800;2023-04-15T08:22:53;10.93;;;4.20;;
5847;SDS011;8756;49.29324300;8.70599800;2023-04-15T08:25:20;10.00;;;4.37;;
5847;SDS011;8756;49.29324300;8.70599800;2023-04-15T08:27:45;11.20;;;3.93;;
5847;SDS011;8756;49.29324300;8.70599800;2023-04-15T08:30:11;10.80;;;4.13;;
5847;SDS011;8756;49.29324300;8.70599800;2023-04-15T08:32:38;11.67;;;4.47;;
5847;SDS011;8756;49.29324300;8.70599800;2023-04-15T08:35:03;11.23;;;4.13;;
5847;SDS011;8756;49.29324300;8.70599800;2023-04-15T08:37:30;10.50;;;4.10;;
5847;SDS011;8756;49.29324300;8.70599800;2023-04-15T08:39:56;10.17;;;4.50;;
5847;SDS011;8756;49.29324300;8.70599800;2023-04-15T08:42:30;10.87;;;4.37;;
5847;SDS011;8756;49.29324300;8.70599800;2023-04-15T08:44:58;10.83;;;3.80;;
5847;SDS011;8756;49.29324300;8.70599800;2023-04-15T08:47:28;14.30;;;4.70;;
5847;SDS011;8756;49.29324300;8.70599800;2023-04-15T08:49:57;11.80;;;4.40;;
5847;SDS011;8756;49.29324300;8.70599800;2023-04-15T08:52:24;10.40;;;4.17;;
5847;SDS011;8756;49.29324300;8.70599800;2023-04-15T08:54:51;10.77;;;4.40;;
5847;SDS011;8756;49.29324300;8.70599800;2023-04-15T08:57:24;10.87;;;3.70;;
5847;SDS011;8756;49.29324300;8.70599800;2023-04-15T08:59:51;10.10;;;3.87;;
5847;SDS011;8756;49.29324300;8.70599800;2023-04-15T09:02:20;11.30;;;4.70;;
5847;SDS011;8756;49.29324300;8.70599800;2023-04-15T09:04:48;10.80;;;4.00;;
5847;SDS011;8756;49.29324300;8.70599800;2023-04-15T09:07:13;10.17;;;3.50;;
5847;SDS011;8756;49.29324300;8.70599800;2023-04-15T09:09:39;10.83;;;4.37;;
5847;SDS011;8756;49.29324300;8.70599800;2023-04-15T09:12:06;12.00;;;4.80;;
5847;SDS011;8756;49.29324300;8.70599800;2023-04-15T09:14:35;10.53;;;3.47;;
5847;SDS011;8756;49.29324300;8.70599800;2023-04-15T09:17:03;10.50;;;3.73;;
5847;SDS011;8756;49.29324300;8.70599800;2023-04-15T09:19:30;11.17;;;4.67;;
5847;SDS011;8756;49.29324300;8.70599800;2023-04-15T09:21:57;10.70;;;4.17;;
5847;SDS011;8756;49.29324300;8.70599800;2023-04-15T09:24:24;14.50;;;3.80;;
5847;SDS011;8756;49.29324300;8.70599800;2023-04-15T09:26:58;10.20;;;3.80;;
5847;SDS011;8756;49.29324300;8.70599800;2023-04-15T09:29:25;10.00;;;4.33;;
5847;SDS011;8756;49.29324300;8.70599800;2023-04-15T09:31:50;12.23;;;4.47;;
5847;SDS011;8756;49.29324300;8.70599800;2023-04-15T09:34:17;10.50;;;3.57;;
5847;SDS011;8756;49.29324300;8.70599800;2023-04-15T09:39:14;9.60;;;3.40;;
5847;SDS011;8756;49.29324300;8.70599800;2023-04-15T09:41:40;12.37;;;3.03;;
5847;SDS011;8756;49.29324300;8.70599800;2023-04-15T09:44:07;14.83;;;3.20;;
5847;SDS011;8756;49.29324300;8.70599800;2023-04-15T09:46:50;10.63;;;2.83;;
5847;SDS011;8756;49.29324300;8.70599800;2023-04-15T09:49:15;10.50;;;4.13;;
5847;SDS011;8756;49.29324300;8.70599800;2023-04-15T09:51:42;11.20;;;3.73;;
5847;SDS011;8756;49.29324300;8.70599800;2023-04-15T09:54:08;10.00;;;3.60;;
5847;SDS011;8756;49.29324300;8.70599800;2023-04-15T09:56:34;10.30;;;3.60;;
5847;SDS011;8756;49.29324300;8.70599800;2023-04-15T09:59:07;11.80;;;3.67;;
5847;SDS011;8756;49.29324300;8.70599800;2023-04-15T10:01:33;10.17;;;3.80;;
5847;SDS011;8756;49.29324300;8.70599800;2023-04-15T10:04:03;10.77;;;3.87;;
5847;SDS011;8756;49.29324300;8.70599800;2023-04-15T10:06:30;10.90;;;3.80;;
5847;SDS011;8756;49.29324300;8.70599800;2023-04-15T10:08:57;10.80;;;3.60;;
5847;SDS011;8756;49.29324300;8.70599800;2023-04-15T10:11:23;10.40;;;3.77;;
5847;SDS011;8756;49.29324300;8.70599800;2023-04-15T10:13:52;9.80;;;3.47;;
5847;SDS011;8756;49.29324300;8.70599800;2023-04-15T10:16:19;11.00;;;4.07;;
5847;SDS011;8756;49.29324300;8.70599800;2023-04-15T10:18:46;10.27;;;3.57;;
5847;SDS011;8756;49.29324300;8.70599800;2023-04-15T10:21:19;13.83;;;4.30;;
5847;SDS011;8756;49.29324300;8.70599800;2023-04-15T10:23:47;11.03;;;3.73;;
5847;SDS011;8756;49.29324300;8.70599800;2023-04-15T10:26:14;10.07;;;3.27;;
5847;SDS011;8756;49.29324300;8.70599800;2023-04-15T10:28:44;10.17;;;3.53;;
5847;SDS011;8756;49.29324300;8.70599800;2023-04-15T10:31:13;9.83;;;3.53;;
5847;SDS011;8756;49.29324300;8.70599800;2023-04-15T10:33:41;9.70;;;3.27;;
5847;SDS011;8756;49.29324300;8.70599800;2023-04-15T10:36:08;10.10;;;4.20;;
5847;SDS011;8756;49.29324300;8.70599800;2023-04-15T10:38:39;10.60;;;4.30;;
5847;SDS011;8756;49.29324300;8.70599800;2023-04-15T10:41:13;10.70;;;3.90;;
5847;SDS011;8756;49.29324300;8.70599800;2023-04-15T10:44:00;10.20;;;3.33;;
5847;SDS011;8756;49.29324300;8.70599800;2023-04-15T10:46:38;10.17;;;3.83;;
5847;SDS011;8756;49.29324300;8.70599800;2023-04-15T10:49:07;11.10;;;3.50;;
5847;SDS011;8756;49.29324300;8.70599800;2023-04-15T10:51:38;10.07;;;3.60;;
5847;SDS011;8756;49.29324300;8.70599800;2023-04-15T10:54:14;11.47;;;3.80;;
5847;SDS011;8756;49.29324300;8.70599800;2023-04-15T10:59:30;10.53;;;3.60;;
5847;SDS011;8756;49.29324300;8.70599800;2023-04-15T11:01:59;11.17;;;3.57;;
5847;SDS011;8756;49.29324300;8.70599800;2023-04-15T11:12:59;10.60;;;3.90;;
5847;SDS011;8756;49.29324300;8.70599800;2023-04-15T11:15:38;10.87;;;4.10;;
5847;SDS011;8756;49.29324300;8.70599800;2023-04-15T11:18:11;10.90;;;3.80;;
5847;SDS011;8756;49.29324300;8.70599800;2023-04-15T11:20:47;11.70;;;3.57;;
5847;SDS011;8756;49.29324300;8.70599800;2023-04-15T11:23:18;10.50;;;3.27;;
5847;SDS011;8756;49.29324300;8.70599800;2023-04-15T11:26:08;10.37;;;3.40;;
5847;SDS011;8756;49.29324300;8.70599800;2023-04-15T11:28:36;9.70;;;3.20;;
5847;SDS011;8756;49.29324300;8.70599800;2023-04-15T11:31:09;9.60;;;3.10;;
5847;SDS011;8756;49.29324300;8.70599800;2023-04-15T11:33:44;9.23;;;2.43;;
5847;SDS011;8756;49.29324300;8.70599800;2023-04-15T11:36:23;9.43;;;2.67;;
5847;SDS011;8756;49.29324300;8.70599800;2023-04-15T11:38:52;9.20;;;2.90;;
5847;SDS011;8756;49.29324300;8.70599800;2023-04-15T11:41:22;10.10;;;3.30;;
5847;SDS011;8756;49.29324300;8.70599800;2023-04-15T11:43:48;9.73;;;2.70;;
5847;SDS011;8756;49.29324300;8.70599800;2023-04-15T11:46:15;9.47;;;2.43;;
5847;SDS011;8756;49.29324300;8.70599800;2023-04-15T11:48:42;9.53;;;3.03;;
5847;SDS011;8756;49.29324300;8.70599800;2023-04-15T11:51:10;9.50;;;3.27;;
5847;SDS011;8756;49.29324300;8.70599800;2023-04-15T11:56:15;9.30;;;2.70;;
5847;SDS011;8756;49.29324300;8.70599800;2023-04-15T11:58:51;9.10;;;2.53;;
5847;SDS011;8756;49.29324300;8.70599800;2023-04-15T12:01:20;9.60;;;3.17;;
5847;SDS011;8756;49.29324300;8.70599800;2023-04-15T12:04:10;9.40;;;2.80;;
5847;SDS011;8756;49.29324300;8.70599800;2023-04-15T12:06:46;10.77;;;3.37;;
5847;SDS011;8756;49.29324300;8.70599800;2023-04-15T12:09:13;10.17;;;3.30;;
5847;SDS011;8756;49.29324300;8.70599800;2023-04-15T12:11:47;9.77;;;2.70;;
5847;SDS011;8756;49.29324300;8.70599800;2023-04-15T12:16:50;9.40;;;2.93;;
5847;SDS011;8756;49.29324300;8.70599800;2023-04-15T12:19:39;9.83;;;2.87;;
5847;SDS011;8756;49.29324300;8.70599800;2023-04-15T12:22:09;9.80;;;3.47;;
5847;SDS011;8756;49.29324300;8.70599800;2023-04-15T12:24:37;9.10;;;2.57;;
5847;SDS011;8756;49.29324300;8.70599800;2023-04-15T12:27:04;11.50;;;3.00;;
5847;SDS011;8756;49.29324300;8.70599800;2023-04-15T12:29:32;9.40;;;2.50;;
5847;SDS011;8756;49.29324300;8.70599800;2023-04-15T12:32:04;9.07;;;2.53;;
5847;SDS011;8756;49.29324300;8.70599800;2023-04-15T12:34:43;9.07;;;2.30;;
5847;SDS011;8756;49.29324300;8.70599800;2023-04-15T12:37:14;9.53;;;3.17;;
5847;SDS011;8756;49.29324300;8.70599800;2023-04-15T12:39:41;9.60;;;2.87;;
5847;SDS011;8756;49.29324300;8.70599800;2023-04-15T12:42:08;9.17;;;2.53;;
5847;SDS011;8756;49.29324300;8.70599800;2023-04-15T12:44:35;9.20;;;2.97;;
5847;SDS011;8756;49.29324300;8.70599800;2023-04-15T12:47:03;9.20;;;2.50;;
5847;SDS011;8756;49.29324300;8.70599800;2023-04-15T12:49:29;9.80;;;3.10;;
5847;SDS011;8756;49.29324300;8.70599800;2023-04-15T12:51:57;9.43;;;2.80;;
5847;SDS011;8756;49.29324300;8.70599800;2023-04-15T12:54:24;9.90;;;2.90;;
5847;SDS011;8756;49.29324300;8.70599800;2023-04-15T12:56:51;9.60;;;2.67;;
5847;SDS011;8756;49.29324300;8.70599800;2023-04-15T12:59:18;9.10;;;3.00;;
5847;SDS011;8756;49.29324300;8.70599800;2023-04-15T13:01:45;10.80;;;2.90;;
5847;SDS011;8756;49.29324300;8.70599800;2023-04-15T13:04:12;9.10;;;2.60;;
5847;SDS011;8756;49.29324300;8.70599800;2023-04-15T13:06:39;10.53;;;2.20;;
5847;SDS011;8756;49.29324300;8.70599800;2023-04-15T13:09:05;9.87;;;2.20;;
5847;SDS011;8756;49.29324300;8.70599800;2023-04-15T13:11:31;9.33;;;3.50;;
5847;SDS011;8756;49.29324300;8.70599800;2023-04-15T13:14:01;9.00;;;2.73;;
5847;SDS011;8756;49.29324300;8.70599800;2023-04-15T13:16:29;12.50;;;3.03;;
5847;SDS011;8756;49.29324300;8.70599800;2023-04-15T13:18:56;9.70;;;2.90;;
5847;SDS011;8756;49.29324300;8.70599800;2023-04-15T13:21:23;10.93;;;3.37;;
5847;SDS011;8756;49.29324300;8.70599800;2023-04-15T13:23:49;9.40;;;2.87;;